sensor_id;sensor_type;location;lat;lon;timestamp;temperature;humidity
28069;DHT22;15382;47.578;8.086;2023-06-10T00:05:43;19.10;99.90
28069;DHT22;15382;47.578;8.086;2023-06-10T00:15:43;18.30;99.90
28069;DHT22;15382;47.578;8.086;2023-06-10T00:25:44;17.80;99.90
28069;DHT22;15382;47.578;8.086;2023-06-10T00:35:44;17.40;99.90
28069;DHT22;15382;47.578;8.086;2023-06-10T00:45:45;17.50;99.90
28069;DHT22;15382;47.578;8.086;2023-06-10T00:55:46;17.00;99.90
28069;DHT22;15382;47.578;8.086;2023-06-10T01:05:48;16.50;99.90
28069;DHT22;15382;47.578;8.086;2023-06-10T01:15:51;16.30;99.90
28069;DHT22;15382;47.578;8.086;2023-06-10T01:25:53;16.00;99.90
28069;DHT22;15382;47.578;8.086;2023-06-10T01:35:59;15.60;99.90
28069;DHT22;15382;47.578;8.086;2023-06-10T01:46:03;15.50;99.90
28069;DHT22;15382;47.578;8.086;2023-06-10T01:56:04;15.40;99.90
28069;DHT22;15382;47.578;8.086;2023-06-10T02:06:05;15.40;99.90
28069;DHT22;15382;47.578;8.086;2023-06-10T02:16:06;15.20;99.90
28069;DHT22;15382;47.578;8.086;2023-06-10T02:26:06;14.60;99.90
28069;DHT22;15382;47.578;8.086;2023-06-10T02:36:07;14.90;99.90
28069;DHT22;15382;47.578;8.086;2023-06-10T02:46:08;14.90;99.90
28069;DHT22;15382;47.578;8.086;2023-06-10T02:56:10;14.70;99.90
28069;DHT22;15382;47.578;8.086;2023-06-10T03:06:13;14.20;99.90
28069;DHT22;15382;47.578;8.086;2023-06-10T03:16:14;14.00;99.90
28069;DHT22;15382;47.578;8.086;2023-06-10T03:26:15;13.80;99.90
28069;DHT22;15382;47.578;8.086;2023-06-10T03:36:19;13.60;99.90
28069;DHT22;15382;47.578;8.086;2023-06-10T03:46:21;13.70;99.90
28069;DHT22;15382;47.578;8.086;2023-06-10T03:56:22;13.80;99.90
28069;DHT22;15382;47.578;8.086;2023-06-10T04:06:23;13.90;99.90
28069;DHT22;15382;47.578;8.086;2023-06-10T04:16:28;13.80;99.90
28069;DHT22;15382;47.578;8.086;2023-06-10T04:26:29;13.80;99.90
28069;DHT22;15382;47.578;8.086;2023-06-10T04:36:30;14.10;99.90
28069;DHT22;15382;47.578;8.086;2023-06-10T04:46:31;14.30;99.90
28069;DHT22;15382;47.578;8.086;2023-06-10T04:56:32;14.90;99.90
28069;DHT22;15382;47.578;8.086;2023-06-10T05:06:33;15.40;99.90
28069;DHT22;15382;47.578;8.086;2023-06-10T05:16:33;15.80;99.90
28069;DHT22;15382;47.578;8.086;2023-06-10T05:26:34;16.30;99.90
28069;DHT22;15382;47.578;8.086;2023-06-10T05:36:37;16.60;99.90
28069;DHT22;15382;47.578;8.086;2023-06-10T05:46:38;17.10;99.90
28069;DHT22;15382;47.578;8.086;2023-06-10T05:56:39;17.60;99.90
28069;DHT22;15382;47.578;8.086;2023-06-10T06:06:39;17.80;99.90
28069;DHT22;15382;47.578;8.086;2023-06-10T06:16:41;18.40;99.90
28069;DHT22;15382;47.578;8.086;2023-06-10T06:26:41;18.90;99.90
28069;DHT22;15382;47.578;8.086;2023-06-10T06:36:42;19.50;99.90
28069;DHT22;15382;47.578;8.086;2023-06-10T06:46:42;19.60;99.90
28069;DHT22;15382;47.578;8.086;2023-06-10T06:56:43;20.10;99.90
28069;DHT22;15382;47.578;8.086;2023-06-10T07:06:44;20.40;99.90
28069;DHT22;15382;47.578;8.086;2023-06-10T07:16:45;21.20;99.90
28069;DHT22;15382;47.578;8.086;2023-06-10T07:26:46;21.40;99.90
28069;DHT22;15382;47.578;8.086;2023-06-10T07:36:47;22.00;99.90
28069;DHT22;15382;47.578;8.086;2023-06-10T07:46:47;22.70;99.90
28069;DHT22;15382;47.578;8.086;2023-06-10T07:56:48;23.50;99.90
28069;DHT22;15382;47.578;8.086;2023-06-10T08:06:49;23.60;99.90
28069;DHT22;15382;47.578;8.086;2023-06-10T08:16:49;23.70;99.90
28069;DHT22;15382;47.578;8.086;2023-06-10T08:26:50;23.80;99.90
28069;DHT22;15382;47.578;8.086;2023-06-10T08:36:51;25.40;99.90
28069;DHT22;15382;47.578;8.086;2023-06-10T08:46:53;25.80;99.90
28069;DHT22;15382;47.578;8.086;2023-06-10T08:56:55;25.80;99.90
28069;DHT22;15382;47.578;8.086;2023-06-10T09:06:57;25.60;99.90
28069;DHT22;15382;47.578;8.086;2023-06-10T09:16:58;26.60;99.90
28069;DHT22;15382;47.578;8.086;2023-06-10T09:27:05;27.40;99.90
28069;DHT22;15382;47.578;8.086;2023-06-10T09:37:06;27.80;98.30
28069;DHT22;15382;47.578;8.086;2023-06-10T09:47:08;28.50;96.50
28069;DHT22;15382;47.578;8.086;2023-06-10T09:57:09;28.40;97.10
28069;DHT22;15382;47.578;8.086;2023-06-10T10:07:11;28.00;95.50
28069;DHT22;15382;47.578;8.086;2023-06-10T10:17:12;28.90;94.20
28069;DHT22;15382;47.578;8.086;2023-06-10T10:27:17;30.10;92.90
28069;DHT22;15382;47.578;8.086;2023-06-10T10:37:19;30.40;91.60
28069;DHT22;15382;47.578;8.086;2023-06-10T10:47:21;29.90;91.50
28069;DHT22;15382;47.578;8.086;2023-06-10T10:57:23;29.80;91.90
28069;DHT22;15382;47.578;8.086;2023-06-10T11:07:27;30.20;89.00
28069;DHT22;15382;47.578;8.086;2023-06-10T11:17:29;29.00;90.40
28069;DHT22;15382;47.578;8.086;2023-06-10T11:27:36;30.80;88.70
28069;DHT22;15382;47.578;8.086;2023-06-10T11:37:38;30.40;88.20
28069;DHT22;15382;47.578;8.086;2023-06-10T11:47:39;30.50;90.10
28069;DHT22;15382;47.578;8.086;2023-06-10T11:57:40;30.80;90.00
28069;DHT22;15382;47.578;8.086;2023-06-10T12:07:40;30.40;88.30
28069;DHT22;15382;47.578;8.086;2023-06-10T12:17:42;29.30;89.50
28069;DHT22;15382;47.578;8.086;2023-06-10T12:27:52;30.90;87.20
28069;DHT22;15382;47.578;8.086;2023-06-10T12:38:00;31.20;84.60
28069;DHT22;15382;47.578;8.086;2023-06-10T12:48:05;31.80;83.80
28069;DHT22;15382;47.578;8.086;2023-06-10T12:58:09;31.60;84.50
28069;DHT22;15382;47.578;8.086;2023-06-10T13:08:09;31.80;81.60
28069;DHT22;15382;47.578;8.086;2023-06-10T13:18:10;30.50;83.20
28069;DHT22;15382;47.578;8.086;2023-06-10T13:28:11;31.40;82.80
28069;DHT22;15382;47.578;8.086;2023-06-10T13:38:12;31.40;80.50
28069;DHT22;15382;47.578;8.086;2023-06-10T13:48:13;31.50;83.30
28069;DHT22;15382;47.578;8.086;2023-06-10T13:58:13;31.90;80.30
28069;DHT22;15382;47.578;8.086;2023-06-10T14:08:14;31.80;79.80
28069;DHT22;15382;47.578;8.086;2023-06-10T14:18:14;31.70;77.50
28069;DHT22;15382;47.578;8.086;2023-06-10T14:28:15;32.00;78.00
28069;DHT22;15382;47.578;8.086;2023-06-10T14:38:16;31.80;79.80
28069;DHT22;15382;47.578;8.086;2023-06-10T14:48:16;31.90;77.10
28069;DHT22;15382;47.578;8.086;2023-06-10T14:58:17;31.60;79.80
28069;DHT22;15382;47.578;8.086;2023-06-10T15:08:18;30.40;79.80
28069;DHT22;15382;47.578;8.086;2023-06-10T15:18:18;31.20;82.50
28069;DHT22;15382;47.578;8.086;2023-06-10T15:28:19;31.10;82.20
28069;DHT22;15382;47.578;8.086;2023-06-10T15:38:20;31.20;80.70
28069;DHT22;15382;47.578;8.086;2023-06-10T15:48:20;30.90;82.50
28069;DHT22;15382;47.578;8.086;2023-06-10T15:58:21;30.60;82.60
28069;DHT22;15382;47.578;8.086;2023-06-10T16:08:22;30.00;83.70
28069;DHT22;15382;47.578;8.086;2023-06-10T16:18:22;29.90;85.00
28069;DHT22;15382;47.578;8.086;2023-06-10T16:28:23;29.60;84.60
28069;DHT22;15382;47.578;8.086;2023-06-10T16:38:24;29.20;85.80
28069;DHT22;15382;47.578;8.086;2023-06-10T16:48:24;28.50;86.80
28069;DHT22;15382;47.578;8.086;2023-06-10T16:58:25;27.90;93.90
28069;DHT22;15382;47.578;8.086;2023-06-10T17:08:25;27.20;96.70
28069;DHT22;15382;47.578;8.086;2023-06-10T17:18:26;28.00;91.10
28069;DHT22;15382;47.578;8.086;2023-06-10T17:28:27;27.40;92.30
28069;DHT22;15382;47.578;8.086;2023-06-10T17:38:27;27.20;92.00
28069;DHT22;15382;47.578;8.086;2023-06-10T17:48:28;26.60;93.80
28069;DHT22;15382;47.578;8.086;2023-06-10T17:58:29;26.00;96.20
28069;DHT22;15382;47.578;8.086;2023-06-10T18:08:29;25.10;99.90
28069;DHT22;15382;47.578;8.086;2023-06-10T18:18:31;24.70;99.90
28069;DHT22;15382;47.578;8.086;2023-06-10T18:28:32;24.60;99.90
28069;DHT22;15382;47.578;8.086;2023-06-10T18:38:32;23.60;99.90
28069;DHT22;15382;47.578;8.086;2023-06-10T18:48:33;23.50;99.90
28069;DHT22;15382;47.578;8.086;2023-06-10T18:58:34;23.70;99.90
28069;DHT22;15382;47.578;8.086;2023-06-10T19:08:37;23.60;99.90
28069;DHT22;15382;47.578;8.086;2023-06-10T19:18:38;24.00;99.90
28069;DHT22;15382;47.578;8.086;2023-06-10T19:28:39;24.00;99.90
28069;DHT22;15382;47.578;8.086;2023-06-10T19:38:40;23.90;99.90
28069;DHT22;15382;47.578;8.086;2023-06-10T19:48:41;23.70;99.90
28069;DHT22;15382;47.578;8.086;2023-06-10T19:58:41;23.50;99.90
28069;DHT22;15382;47.578;8.086;2023-06-10T20:08:42;23.20;99.90
28069;DHT22;15382;47.578;8.086;2023-06-10T20:18:43;22.60;99.90
28069;DHT22;15382;47.578;8.086;2023-06-10T20:28:44;22.20;99.90
28069;DHT22;15382;47.578;8.086;2023-06-10T20:38:45;21.90;99.90
28069;DHT22;15382;47.578;8.086;2023-06-10T20:48:46;21.50;99.90
28069;DHT22;15382;47.578;8.086;2023-06-10T20:58:50;21.40;99.90
28069;DHT22;15382;47.578;8.086;2023-06-10T21:08:50;21.30;99.90
28069;DHT22;15382;47.578;8.086;2023-06-10T21:18:52;21.20;99.90
28069;DHT22;15382;47.578;8.086;2023-06-10T21:28:52;20.90;99.90
28069;DHT22;15382;47.578;8.086;2023-06-10T21:38:54;20.90;99.90
28069;DHT22;15382;47.578;8.086;2023-06-10T21:48:55;20.70;99.90
28069;DHT22;15382;47.578;8.086;2023-06-10T21:58:56;20.40;99.90
28069;DHT22;15382;47.578;8.086;2023-06-10T22:08:56;20.30;99.90
28069;DHT22;15382;47.578;8.086;2023-06-10T22:18:57;20.00;99.90
28069;DHT22;15382;47.578;8.086;2023-06-10T22:28:58;20.00;99.90
28069;DHT22;15382;47.578;8.086;2023-06-10T22:38:58;20.00;99.90
28069;DHT22;15382;47.578;8.086;2023-06-10T22:48:59;19.90;99.90
28069;DHT22;15382;47.578;8.086;2023-06-10T22:59:00;19.90;99.90
28069;DHT22;15382;47.578;8.086;2023-06-10T23:09:02;19.90;99.90
28069;DHT22;15382;47.578;8.086;2023-06-10T23:19:03;19.60;99.90
28069;DHT22;15382;47.578;8.086;2023-06-10T23:29:04;19.20;99.90
28069;DHT22;15382;47.578;8.086;2023-06-10T23:39:05;19.20;99.90
28069;DHT22;15382;47.578;8.086;2023-06-10T23:49:06;19.00;99.90
28069;DHT22;15382;47.578;8.086;2023-06-10T23:59:07;18.90;99.90
